Time;durP1;ratioP1;P1;durP2;ratioP2;P2;SDS_P1;SDS_P2;PMS_P1;PMS_P2;Temp;Humidity;BMP_temperature;BMP_pressure;BME280_temperature;BME280_humidity;BME280_pressure;Samples;Min_cycle;Max_cycle;Signal;HPM_P1;HPM_P2
2022/11/02 00:01:36;;;;;;;;;;;;;;;;;;6230834;22;19911;-90
2022/11/02 00:04:02;;;;;;;;;;;;;;;;;;6227302;22;20002;-91
2022/11/02 00:06:28;;;;;;;;;;;;;;;;;;6225253;22;19911;-90
2022/11/02 00:08:54;;;;;;;;;;;;;;;;;;6225227;22;20329;-90
2022/11/02 00:11:20;;;;;;;;;;;;;;;;;;6249640;22;19911;-90
2022/11/02 00:13:46;;;;;;;;;;;;;;;;;;6228061;22;19942;-90
2022/11/02 00:16:13;;;;;;;;;;;;;;;;;;6227589;22;19919;-90
2022/11/02 00:18:39;;;;;;;;;;;;;;;;;;6224942;22;19957;-90
2022/11/02 00:21:05;;;;;;;;;;;;;;;;;;6249354;22;19911;-90
2022/11/02 00:23:31;;;;;;;;;;;;;;;;;;6223844;22;19911;-90
2022/11/02 00:25:57;;;;;;;;;;;;;;;;;;6224775;22;20248;-90
2022/11/02 00:28:23;;;;;;;;;;;;;;;;;;6223402;22;19959;-90
2022/11/02 00:30:48;;;;;;;;;;;;;;;;;;6224197;22;19947;-90
2022/11/02 00:33:14;;;;;;;;;;;;;;;;;;6223734;22;19911;-91
2022/11/02 00:35:40;;;;;;;;;;;;;;;;;;6224068;22;19911;-90
2022/11/02 00:38:06;;;;;;;;;;;;;;;;;;6223657;22;20340;-90
2022/11/02 00:40:32;;;;;;;;;;;;;;;;;;6223276;22;19918;-90
2022/11/02 00:42:58;;;;;;;;;;;;;;;;;;6224068;22;19915;-90
2022/11/02 00:45:24;;;;;;;;;;;;;;;;;;6223681;22;19982;-89
2022/11/02 00:47:50;;;;;;;;;;;;;;;;;;6223822;22;19946;-89
2022/11/02 00:50:16;;;;;;;;;;;;;;;;;;6248694;22;20283;-90
2022/11/02 00:52:42;;;;;;;;;;;;;;;;;;6223578;22;19911;-90
2022/11/02 00:55:09;;;;;;;;;;;;;;;;;;6224022;22;19915;-90
2022/11/02 00:57:35;;;;;;;;;;;;;;;;;;6223656;22;19911;-91
2022/11/02 01:00:00;;;;;;;;;;;;;;;;;;6223895;22;19917;-90
2022/11/02 01:02:26;;;;;;;;;;;;;;;;;;6223965;22;19911;-90
2022/11/02 01:04:52;;;;;;;;;;;;;;;;;;6249117;22;19977;-90
2022/11/02 01:07:18;;;;;;;;;;;;;;;;;;6223599;22;20106;-87
2022/11/02 01:09:44;;;;;;;;;;;;;;;;;;6223593;22;19915;-90
2022/11/02 01:12:10;;;;;;;;;;;;;;;;;;6248741;22;20328;-89
2022/11/02 01:14:36;;;;;;;;;;;;;;;;;;6223373;22;19911;-89
2022/11/02 01:17:03;;;;;;;;;;;;;;;;;;6223326;22;19915;-90
2022/11/02 01:19:29;;;;;;;;;;;;;;;;;;6223848;22;19918;-89
2022/11/02 01:21:55;;;;;;;;;;;;;;;;;;6249152;22;19911;-89
2022/11/02 01:24:21;;;;;;;;;;;;;;;;;;6223352;22;19982;-89
2022/11/02 01:26:47;;;;;;;;;;;;;;;;;;6223290;22;19985;-89
2022/11/02 01:29:13;;;;;;;;;;;;;;;;;;6248562;22;19998;-89
2022/11/02 01:31:39;;;;;;;;;;;;;;;;;;6223220;22;19911;-89
2022/11/02 01:34:04;;;;;;;;;;;;;;;;;;6248481;22;19915;-88
2022/11/02 01:36:30;;;;;;;;;;;;;;;;;;6223132;22;19911;-88
2022/11/02 01:38:56;;;;;;;;;;;;;;;;;;6223457;22;19982;-90
2022/11/02 01:41:22;;;;;;;;;;;;;;;;;;6223601;22;20283;-89
2022/11/02 01:43:48;;;;;;;;;;;;;;;;;;6223711;22;19937;-89
2022/11/02 01:46:14;;;;;;;;;;;;;;;;;;6223897;22;20006;-89
2022/11/02 01:48:40;;;;;;;;;;;;;;;;;;6223230;22;19998;-89
2022/11/02 01:51:06;;;;;;;;;;;;;;;;;;6223611;22;19942;-89
2022/11/02 01:53:32;;;;;;;;;;;;;;;;;;6223626;22;19911;-89
2022/11/02 01:55:58;;;;;;;;;;;;;;;;;;6223553;22;19915;-89
2022/11/02 01:58:24;;;;;;;;;;;;;;;;;;6223223;22;19917;-89
2022/11/02 02:00:49;;;;;;;;;;;;;;;;;;6223367;22;19911;-88
2022/11/02 02:03:17;;;;;;;;;;;;;;;;;;6250795;22;19977;-89
2022/11/02 02:05:42;;;;;;;;;;;;;;;;;;6225049;22;19982;-89
2022/11/02 02:08:08;;;;;;;;;;;;;;;;;;6224629;22;20086;-89
2022/11/02 02:10:34;;;;;;;;;;;;;;;;;;6250570;22;19969;-88
2022/11/02 02:13:00;;;;;;;;;;;;;;;;;;6224889;22;20066;-88
2022/11/02 02:15:26;;;;;;;;;;;;;;;;;;6250237;22;19978;-88
2022/11/02 02:17:52;;;;;;;;;;;;;;;;;;6224584;22;20249;-89
2022/11/02 02:20:18;;;;;;;;;;;;;;;;;;6225015;22;19922;-89
2022/11/02 02:22:44;;;;;;;;;;;;;;;;;;6225309;22;19918;-90
2022/11/02 02:25:10;;;;;;;;;;;;;;;;;;6250715;22;19918;-89
2022/11/02 02:27:36;;;;;;;;;;;;;;;;;;6224675;22;19911;-89
2022/11/02 02:30:02;;;;;;;;;;;;;;;;;;6225035;22;19986;-89
2022/11/02 02:32:28;;;;;;;;;;;;;;;;;;6249958;22;19926;-89
2022/11/02 02:34:54;;;;;;;;;;;;;;;;;;6249954;22;19918;-88
2022/11/02 02:37:20;;;;;;;;;;;;;;;;;;6224811;22;19918;-89
2022/11/02 02:39:47;;;;;;;;;;;;;;;;;;6224594;22;19915;-89
2022/11/02 02:42:14;;;;;;;;;;;;;;;;;;6250503;22;20241;-88
2022/11/02 02:44:40;;;;;;;;;;;;;;;;;;6249909;22;19911;-89
2022/11/02 02:47:06;;;;;;;;;;;;;;;;;;6250265;22;19961;-89
2022/11/02 02:49:32;;;;;;;;;;;;;;;;;;6249895;22;19922;-89
2022/11/02 02:51:58;;;;;;;;;;;;;;;;;;6224547;22;20249;-89
2022/11/02 02:54:24;;;;;;;;;;;;;;;;;;6224979;22;19990;-90
2022/11/02 02:56:50;;;;;;;;;;;;;;;;;;6224601;22;19949;-90
2022/11/02 02:59:16;;;;;;;;;;;;;;;;;;6224486;22;19914;-89
2022/11/02 03:01:41;;;;;;;;;;;;;;;;;;6224462;22;19933;-89
2022/11/02 03:04:07;;;;;;;;;;;;;;;;;;6224283;22;19915;-89
2022/11/02 03:06:33;;;;;;;;;;;;;;;;;;6224265;22;19985;-89
2022/11/02 03:08:59;;;;;;;;;;;;;;;;;;6223964;22;19998;-89
2022/11/02 03:11:25;;;;;;;;;;;;;;;;;;6249644;22;19946;-90
2022/11/02 03:13:51;;;;;;;;;;;;;;;;;;6249554;22;19918;-89
2022/11/02 03:16:17;;;;;;;;;;;;;;;;;;6224169;22;19925;-89
2022/11/02 03:18:43;;;;;;;;;;;;;;;;;;6224742;22;19918;-89
2022/11/02 03:21:09;;;;;;;;;;;;;;;;;;6249612;22;19918;-89
2022/11/02 03:23:35;;;;;;;;;;;;;;;;;;6224172;22;20225;-90
2022/11/02 03:26:01;;;;;;;;;;;;;;;;;;6224445;22;19998;-89
2022/11/02 03:28:26;;;;;;;;;;;;;;;;;;6223897;22;19924;-89
2022/11/02 03:30:52;;;;;;;;;;;;;;;;;;6224259;22;19922;-89
2022/11/02 03:33:18;;;;;;;;;;;;;;;;;;6224193;22;20078;-89
2022/11/02 03:35:44;;;;;;;;;;;;;;;;;;6249868;22;19911;-89
2022/11/02 03:38:10;;;;;;;;;;;;;;;;;;6249225;22;19917;-89
2022/11/02 03:40:36;;;;;;;;;;;;;;;;;;6224133;22;19952;-89
2022/11/02 03:43:02;;;;;;;;;;;;;;;;;;6224179;22;20213;-89
2022/11/02 03:45:28;;;;;;;;;;;;;;;;;;6223828;22;19994;-89
2022/11/02 03:47:54;;;;;;;;;;;;;;;;;;6224053;22;19982;-89
2022/11/02 03:50:20;;;;;;;;;;;;;;;;;;6223940;22;19981;-89
2022/11/02 03:52:45;;;;;;;;;;;;;;;;;;6223983;22;20225;-89
2022/11/02 03:55:11;;;;;;;;;;;;;;;;;;6223931;22;19911;-89
2022/11/02 03:57:37;;;;;;;;;;;;;;;;;;6223788;22;19922;-89
2022/11/02 04:00:03;;;;;;;;;;;;;;;;;;6248864;22;19986;-90
2022/11/02 04:02:29;;;;;;;;;;;;;;;;;;6248917;22;19977;-89
2022/11/02 04:04:55;;;;;;;;;;;;;;;;;;6223728;22;20339;-89
2022/11/02 04:07:21;;;;;;;;;;;;;;;;;;6223370;22;19982;-89
2022/11/02 04:09:47;;;;;;;;;;;;;;;;;;6223665;22;19962;-89
2022/11/02 04:14:59;;;;;;;;;;;;;;;;;;6248908;22;19914;-89
2022/11/02 04:20:10;;;;;;;;;;;;;;;;;;6249069;22;19911;-89
2022/11/02 04:25:21;;;;;;;;;;;;;;;;;;6248319;22;19941;-89
2022/11/02 04:27:47;;;;;;;;;;;;;;;;;;6223380;22;19933;-89
2022/11/02 04:30:13;;;;;;;;;;;;;;;;;;6223548;22;19922;-89
2022/11/02 04:35:24;;;;;;;;;;;;;;;;;;6248953;22;19946;-89
2022/11/02 04:40:34;;;;;;;;;;;;;;;;;;6248787;22;19911;-89
2022/11/02 04:43:00;;;;;;;;;;;;;;;;;;6248690;22;19953;-89
2022/11/02 04:45:26;;;;;;;;;;;;;;;;;;6248782;22;20222;-89
2022/11/02 04:47:52;;;;;;;;;;;;;;;;;;6223683;22;19921;-89
2022/11/02 04:50:18;;;;;;;;;;;;;;;;;;6223325;22;19994;-89
2022/11/02 04:52:44;;;;;;;;;;;;;;;;;;6223870;22;19985;-89
2022/11/02 04:55:09;;;;;;;;;;;;;;;;;;6223353;22;19911;-90
2022/11/02 04:57:35;;;;;;;;;;;;;;;;;;6223358;22;20329;-89
2022/11/02 05:00:01;;;;;;;;;;;;;;;;;;6223518;22;19911;-90
2022/11/02 05:02:27;;;;;;;;;;;;;;;;;;6223641;22;19911;-89
2022/11/02 05:04:53;;;;;;;;;;;;;;;;;;6223466;22;19982;-89
2022/11/02 05:07:19;;;;;;;;;;;;;;;;;;6248611;22;19981;-89
2022/11/02 05:09:45;;;;;;;;;;;;;;;;;;6223180;22;19921;-89
2022/11/02 05:12:11;;;;;;;;;;;;;;;;;;6223551;22;19911;-89
2022/11/02 05:14:37;;;;;;;;;;;;;;;;;;6223470;22;19992;-89
2022/11/02 05:17:03;;;;;;;;;;;;;;;;;;6223278;22;19961;-89
2022/11/02 05:19:29;;;;;;;;;;;;;;;;;;6248607;22;19918;-89
2022/11/02 05:21:54;;;;;;;;;;;;;;;;;;6223302;22;20363;-88
2022/11/02 05:24:21;;;;;;;;;;;;;;;;;;6249184;22;19918;-89
2022/11/02 05:26:47;;;;;;;;;;;;;;;;;;6248245;22;19912;-89
2022/11/02 05:29:12;;;;;;;;;;;;;;;;;;6223109;22;19919;-89
2022/11/02 05:31:38;;;;;;;;;;;;;;;;;;6223232;22;20388;-89
2022/11/02 05:34:04;;;;;;;;;;;;;;;;;;6223411;22;19911;-89
2022/11/02 05:36:30;;;;;;;;;;;;;;;;;;6224619;22;19986;-89
2022/11/02 05:38:56;;;;;;;;;;;;;;;;;;6225484;22;20245;-89
2022/11/02 05:41:22;;;;;;;;;;;;;;;;;;6225602;22;20246;-89
2022/11/02 05:43:48;;;;;;;;;;;;;;;;;;6225200;22;19915;-89
2022/11/02 05:46:14;;;;;;;;;;;;;;;;;;6225017;22;19917;-89
2022/11/02 05:48:40;;;;;;;;;;;;;;;;;;6224974;22;19915;-89
2022/11/02 05:51:06;;;;;;;;;;;;;;;;;;6224950;22;19918;-90
2022/11/02 05:53:32;;;;;;;;;;;;;;;;;;6225197;22;19926;-90
2022/11/02 05:55:58;;;;;;;;;;;;;;;;;;6225161;22;20392;-89
2022/11/02 05:58:24;;;;;;;;;;;;;;;;;;6224970;22;19911;-89
2022/11/02 06:00:50;;;;;;;;;;;;;;;;;;6225424;22;20347;-90
2022/11/02 06:03:16;;;;;;;;;;;;;;;;;;6225004;22;19917;-89
2022/11/02 06:05:42;;;;;;;;;;;;;;;;;;6225061;22;19918;-89
2022/11/02 06:08:08;;;;;;;;;;;;;;;;;;6224765;22;19915;-90
2022/11/02 06:10:34;;;;;;;;;;;;;;;;;;6225248;22;20280;-89
2022/11/02 06:13:00;;;;;;;;;;;;;;;;;;6225529;22;19911;-89
2022/11/02 06:15:26;;;;;;;;;;;;;;;;;;6224750;22;19911;-89
2022/11/02 06:17:52;;;;;;;;;;;;;;;;;;6225283;22;19912;-88
2022/11/02 06:20:18;;;;;;;;;;;;;;;;;;6224865;22;19922;-90
2022/11/02 06:22:44;;;;;;;;;;;;;;;;;;6250032;22;19911;-89
2022/11/02 06:25:10;;;;;;;;;;;;;;;;;;6224719;22;19918;-89
2022/11/02 06:27:36;;;;;;;;;;;;;;;;;;6249838;22;20335;-89
2022/11/02 06:30:02;;;;;;;;;;;;;;;;;;6224879;22;19911;-89
2022/11/02 06:32:28;;;;;;;;;;;;;;;;;;6224572;22;19990;-89
2022/11/02 06:34:54;;;;;;;;;;;;;;;;;;6224615;22;20538;-89
2022/11/02 06:37:20;;;;;;;;;;;;;;;;;;6224706;22;19911;-89
2022/11/02 06:39:46;;;;;;;;;;;;;;;;;;6250046;22;19911;-89
2022/11/02 06:42:12;;;;;;;;;;;;;;;;;;6224753;22;20340;-89
2022/11/02 06:44:38;;;;;;;;;;;;;;;;;;6224558;22;19922;-89
2022/11/02 06:47:04;;;;;;;;;;;;;;;;;;6224169;22;19917;-89
2022/11/02 06:49:30;;;;;;;;;;;;;;;;;;6224550;22;19911;-89
2022/11/02 06:51:56;;;;;;;;;;;;;;;;;;6224378;22;19921;-89
2022/11/02 06:54:22;;;;;;;;;;;;;;;;;;6248428;22;19915;-89
2022/11/02 06:56:48;;;;;;;;;;;;;;;;;;6249653;22;19915;-89
2022/11/02 06:59:14;;;;;;;;;;;;;;;;;;6249357;22;19911;-89
2022/11/02 07:01:40;;;;;;;;;;;;;;;;;;6224050;22;19910;-89
2022/11/02 07:04:06;;;;;;;;;;;;;;;;;;6249643;22;19922;-90
2022/11/02 07:06:32;;;;;;;;;;;;;;;;;;6224293;22;19911;-89
2022/11/02 07:08:58;;;;;;;;;;;;;;;;;;6224185;22;19919;-90
2022/11/02 07:11:23;;;;;;;;;;;;;;;;;;6224253;22;19930;-89
2022/11/02 07:13:49;;;;;;;;;;;;;;;;;;6223872;22;20271;-90
2022/11/02 07:16:15;;;;;;;;;;;;;;;;;;6224268;22;19979;-89
2022/11/02 07:18:41;;;;;;;;;;;;;;;;;;6224341;22;19934;-90
2022/11/02 07:21:10;;;;;;;;;;;;;;;;;;6249673;22;19957;-89
2022/11/02 07:23:36;;;;;;;;;;;;;;;;;;6249591;22;19946;-90
2022/11/02 07:26:02;;;;;;;;;;;;;;;;;;6224464;22;20214;-89
2022/11/02 07:28:27;;;;;;;;;;;;;;;;;;6224121;22;19998;-89
2022/11/02 07:30:54;;;;;;;;;;;;;;;;;;6249559;22;19911;-91
2022/11/02 07:33:20;;;;;;;;;;;;;;;;;;6224139;22;19934;-90
2022/11/02 07:35:46;;;;;;;;;;;;;;;;;;6249607;22;19914;-90
2022/11/02 07:38:12;;;;;;;;;;;;;;;;;;6223930;22;19911;-91
2022/11/02 07:40:37;;;;;;;;;;;;;;;;;;6224685;22;19919;-90
2022/11/02 07:43:03;;;;;;;;;;;;;;;;;;6224755;22;19986;-91
2022/11/02 07:45:29;;;;;;;;;;;;;;;;;;6224497;22;20087;-92
2022/11/02 07:47:55;;;;;;;;;;;;;;;;;;6224243;22;19933;-92
2022/11/02 07:50:21;;;;;;;;;;;;;;;;;;6224691;22;20343;-93
2022/11/02 07:52:47;;;;;;;;;;;;;;;;;;6224967;22;20321;-90
2022/11/02 07:55:13;;;;;;;;;;;;;;;;;;6249264;22;19911;-90
2022/11/02 07:57:39;;;;;;;;;;;;;;;;;;6224240;22;19937;-89
2022/11/02 08:00:05;;;;;;;;;;;;;;;;;;6223749;22;19911;-90
2022/11/02 08:02:31;;;;;;;;;;;;;;;;;;6223738;22;19947;-89
2022/11/02 08:04:57;;;;;;;;;;;;;;;;;;6248946;22;20684;-88
2022/11/02 08:07:22;;;;;;;;;;;;;;;;;;6223575;22;19920;-90
2022/11/02 08:09:48;;;;;;;;;;;;;;;;;;6223450;22;19915;-92
2022/11/02 08:12:14;;;;;;;;;;;;;;;;;;6248861;22;19911;-90
2022/11/02 08:14:41;;;;;;;;;;;;;;;;;;6251781;22;19911;-92
2022/11/02 08:17:07;;;;;;;;;;;;;;;;;;6224096;22;19957;-91
2022/11/02 08:19:33;;;;;;;;;;;;;;;;;;6224149;22;19915;-95
2022/11/02 08:21:59;;;;;;;;;;;;;;;;;;6224251;22;19911;-94
2022/11/02 08:24:25;;;;;;;;;;;;;;;;;;6223863;22;19911;-94
2022/11/02 08:26:51;;;;;;;;;;;;;;;;;;6249251;22;19911;-91
2022/11/02 08:29:17;;;;;;;;;;;;;;;;;;6224122;22;19961;-92
2022/11/02 08:31:43;;;;;;;;;;;;;;;;;;6223743;22;19915;-92
2022/11/02 08:34:10;;;;;;;;;;;;;;;;;;6223825;22;19915;-91
2022/11/02 08:36:36;;;;;;;;;;;;;;;;;;6222375;22;19911;-92
2022/11/02 08:39:02;;;;;;;;;;;;;;;;;;6223796;22;19957;-93
2022/11/02 08:41:28;;;;;;;;;;;;;;;;;;6223478;22;20020;-92
2022/11/02 08:43:55;;;;;;;;;;;;;;;;;;6223730;22;20248;-92
2022/11/02 08:46:22;;;;;;;;;;;;;;;;;;6223665;22;19912;-91
2022/11/02 08:48:48;;;;;;;;;;;;;;;;;;6223977;22;19919;-91
2022/11/02 08:51:14;;;;;;;;;;;;;;;;;;6223621;22;19920;-93
2022/11/02 08:53:39;;;;;;;;;;;;;;;;;;6223793;22;19915;-93
2022/11/02 08:56:05;;;;;;;;;;;;;;;;;;6224077;22;19911;-91
2022/11/02 08:58:31;;;;;;;;;;;;;;;;;;6223528;22;19959;-92
2022/11/02 09:00:57;;;;;;;;;;;;;;;;;;6224020;22;19911;-92
2022/11/02 09:03:23;;;;;;;;;;;;;;;;;;6223924;22;19970;-91
2022/11/02 09:05:49;;;;;;;;;;;;;;;;;;6223598;22;19911;-92
2022/11/02 09:08:15;;;;;;;;;;;;;;;;;;6223132;22;20236;-91
2022/11/02 09:10:41;;;;;;;;;;;;;;;;;;6224385;22;19915;-90
2022/11/02 09:13:07;;;;;;;;;;;;;;;;;;6225941;22;19911;-93
2022/11/02 09:15:33;;;;;;;;;;;;;;;;;;6225283;22;19946;-91
2022/11/02 09:17:59;;;;;;;;;;;;;;;;;;6225329;22;19918;-91
2022/11/02 09:20:25;;;;;;;;;;;;;;;;;;6225409;22;19947;-91
2022/11/02 09:22:52;;;;;;;;;;;;;;;;;;6225008;22;19915;-92
2022/11/02 09:25:18;;;;;;;;;;;;;;;;;;6225334;22;19993;-90
2022/11/02 09:27:44;;;;;;;;;;;;;;;;;;6250895;22;19972;-90
2022/11/02 09:30:10;;;;;;;;;;;;;;;;;;6225500;22;19918;-90
2022/11/02 09:32:36;;;;;;;;;;;;;;;;;;6225062;22;19982;-90
2022/11/02 09:35:01;;;;;;;;;;;;;;;;;;6224505;22;19911;-90
2022/11/02 09:37:27;;;;;;;;;;;;;;;;;;6224956;22;20052;-90
2022/11/02 09:39:53;;;;;;;;;;;;;;;;;;6225494;22;19958;-90
2022/11/02 09:42:20;;;;;;;;;;;;;;;;;;6224987;22;19959;-90
2022/11/02 09:44:46;;;;;;;;;;;;;;;;;;6250670;22;19957;-94
2022/11/02 09:47:12;;;;;;;;;;;;;;;;;;6225774;22;19911;-92
2022/11/02 09:49:38;;;;;;;;;;;;;;;;;;6225801;22;19938;-96
2022/11/02 09:52:21;;;;;;;;;;;;;;;;;;6250912;22;19915;-92
2022/11/02 09:54:47;;;;;;;;;;;;;;;;;;6225596;22;19934;-93
2022/11/02 09:57:14;;;;;;;;;;;;;;;;;;6226110;22;19918;-94
2022/11/02 09:59:45;;;;;;;;;;;;;;;;;;6252041;22;19911;-93
2022/11/02 10:02:13;;;;;;;;;;;;;;;;;;6226685;22;19986;-94
2022/11/02 10:04:39;;;;;;;;;;;;;;;;;;6225723;22;20152;-92
2022/11/02 10:07:05;;;;;;;;;;;;;;;;;;6224778;22;19934;-91
2022/11/02 10:09:34;;;;;;;;;;;;;;;;;;6224623;22;19919;-90
2022/11/02 10:12:00;;;;;;;;;;;;;;;;;;6225268;22;20316;-90
2022/11/02 10:14:26;;;;;;;;;;;;;;;;;;6224662;22;19917;-94
2022/11/02 10:16:52;;;;;;;;;;;;;;;;;;6224684;22;19965;-90
2022/11/02 10:19:19;;;;;;;;;;;;;;;;;;6225044;22;19915;-94
2022/11/02 10:21:46;;;;;;;;;;;;;;;;;;6252085;22;19961;-90
2022/11/02 10:24:11;;;;;;;;;;;;;;;;;;6228009;22;19915;-95
2022/11/02 10:26:42;;;;;;;;;;;;;;;;;;6227617;22;20351;-93
2022/11/02 10:29:08;;;;;;;;;;;;;;;;;;6253014;22;19919;-94
2022/11/02 10:31:34;;;;;;;;;;;;;;;;;;6225464;22;20391;-92
2022/11/02 10:34:00;;;;;;;;;;;;;;;;;;6224703;22;19918;-93
2022/11/02 10:36:26;;;;;;;;;;;;;;;;;;6223773;22;19934;-91
2022/11/02 10:38:52;;;;;;;;;;;;;;;;;;6224486;22;20028;-91
2022/11/02 10:41:19;;;;;;;;;;;;;;;;;;6226569;22;19922;-95
2022/11/02 10:44:00;;;;;;;;;;;;;;;;;;6229420;22;19938;-96
2022/11/02 10:46:26;;;;;;;;;;;;;;;;;;6234068;22;19953;-93
2022/11/02 10:48:52;;;;;;;;;;;;;;;;;;6227721;22;19915;-96
2022/11/02 10:51:20;;;;;;;;;;;;;;;;;;6225977;22;19918;-95
2022/11/02 10:53:46;;;;;;;;;;;;;;;;;;6225764;22;19981;-96
2022/11/02 10:56:12;;;;;;;;;;;;;;;;;;6225757;22;19978;-95
2022/11/02 10:58:38;;;;;;;;;;;;;;;;;;6225970;22;19971;-95
2022/11/02 11:01:04;;;;;;;;;;;;;;;;;;6225312;22;20309;-95
2022/11/02 11:03:30;;;;;;;;;;;;;;;;;;6225722;22;20352;-94
2022/11/02 11:05:56;;;;;;;;;;;;;;;;;;6225770;22;19961;-94
2022/11/02 11:08:22;;;;;;;;;;;;;;;;;;6225265;22;19919;-95
2022/11/02 11:10:48;;;;;;;;;;;;;;;;;;6225980;22;19994;-95
2022/11/02 11:13:14;;;;;;;;;;;;;;;;;;6225791;22;19919;-96
2022/11/02 11:15:40;;;;;;;;;;;;;;;;;;6225806;22;19911;-96
2022/11/02 11:18:06;;;;;;;;;;;;;;;;;;6225587;22;20320;-95
2022/11/02 11:20:32;;;;;;;;;;;;;;;;;;6225549;22;20267;-95
2022/11/02 11:22:58;;;;;;;;;;;;;;;;;;6225448;22;19915;-95
2022/11/02 11:25:24;;;;;;;;;;;;;;;;;;6225466;22;20328;-95
2022/11/02 11:27:50;;;;;;;;;;;;;;;;;;6225516;22;20337;-96
2022/11/02 11:30:16;;;;;;;;;;;;;;;;;;6225161;22;19917;-95
2022/11/02 11:32:42;;;;;;;;;;;;;;;;;;6225655;22;19915;-96
2022/11/02 11:35:08;;;;;;;;;;;;;;;;;;6224632;22;19922;-95
2022/11/02 11:37:34;;;;;;;;;;;;;;;;;;6225176;22;19978;-96
2022/11/02 11:40:00;;;;;;;;;;;;;;;;;;6225158;22;19985;-96
2022/11/02 11:42:30;;;;;;;;;;;;;;;;;;6225657;22;20243;-96
2022/11/02 11:44:59;;;;;;;;;;;;;;;;;;6225646;22;19918;-96
2022/11/02 11:47:25;;;;;;;;;;;;;;;;;;6225452;22;19911;-95
2022/11/02 11:49:51;;;;;;;;;;;;;;;;;;6225471;22;20327;-96
2022/11/02 11:52:20;;;;;;;;;;;;;;;;;;6226007;22;19915;-96
2022/11/02 11:54:46;;;;;;;;;;;;;;;;;;6225369;22;19910;-96
2022/11/02 11:57:12;;;;;;;;;;;;;;;;;;6225808;22;19919;-96
2022/11/02 11:59:38;;;;;;;;;;;;;;;;;;6225726;22;19915;-95
2022/11/02 12:02:10;;;;;;;;;;;;;;;;;;6225506;22;19918;-96
2022/11/02 12:04:36;;;;;;;;;;;;;;;;;;6225841;22;19945;-96
2022/11/02 12:07:05;;;;;;;;;;;;;;;;;;6227088;22;20326;-93
2022/11/02 12:09:30;;;;;;;;;;;;;;;;;;6225204;22;20029;-96
2022/11/02 12:11:56;;;;;;;;;;;;;;;;;;6226454;22;19911;-96
2022/11/02 12:14:22;;;;;;;;;;;;;;;;;;6225516;22;19911;-96
2022/11/02 12:16:51;;;;;;;;;;;;;;;;;;6224878;22;19997;-96
2022/11/02 12:19:17;;;;;;;;;;;;;;;;;;6225950;22;19942;-96
2022/11/02 12:21:45;;;;;;;;;;;;;;;;;;6249940;22;19911;-96
2022/11/02 12:24:11;;;;;;;;;;;;;;;;;;6225004;22;19946;-95
2022/11/02 12:26:37;;;;;;;;;;;;;;;;;;6225319;22;19911;-96
2022/11/02 12:29:03;;;;;;;;;;;;;;;;;;6224397;22;19915;-95
2022/11/02 12:31:29;;;;;;;;;;;;;;;;;;6224666;22;19915;-96
2022/11/02 12:33:55;;;;;;;;;;;;;;;;;;6224870;22;19915;-96
2022/11/02 12:36:21;;;;;;;;;;;;;;;;;;6224857;22;20334;-96
2022/11/02 12:38:47;;;;;;;;;;;;;;;;;;6225380;22;19945;-95
2022/11/02 12:41:13;;;;;;;;;;;;;;;;;;6225143;22;19911;-96
2022/11/02 12:43:39;;;;;;;;;;;;;;;;;;6224908;22;19926;-96
2022/11/02 12:46:05;;;;;;;;;;;;;;;;;;6224221;22;20041;-96
2022/11/02 12:48:31;;;;;;;;;;;;;;;;;;6225192;22;19972;-96
2022/11/02 12:50:57;;;;;;;;;;;;;;;;;;6225270;22;19911;-95
2022/11/02 12:53:26;;;;;;;;;;;;;;;;;;6226191;22;19911;-96
2022/11/02 12:55:59;;;;;;;;;;;;;;;;;;6226264;22;19915;-95
2022/11/02 12:58:28;;;;;;;;;;;;;;;;;;6226234;22;19951;-96
2022/11/02 13:00:54;;;;;;;;;;;;;;;;;;6226669;22;19911;-96
2022/11/02 13:03:20;;;;;;;;;;;;;;;;;;6238435;22;20348;-95
2022/11/02 13:05:46;;;;;;;;;;;;;;;;;;6238231;22;19930;-95
2022/11/02 13:08:12;;;;;;;;;;;;;;;;;;6238135;22;19915;-96
2022/11/02 13:10:38;;;;;;;;;;;;;;;;;;6236783;22;19919;-96
2022/11/02 13:13:04;;;;;;;;;;;;;;;;;;6234373;22;19911;-96
2022/11/02 13:15:30;;;;;;;;;;;;;;;;;;6234235;22;20313;-96
2022/11/02 13:17:56;;;;;;;;;;;;;;;;;;6232342;22;19951;-95
2022/11/02 13:20:22;;;;;;;;;;;;;;;;;;6232739;22;19964;-96
2022/11/02 13:22:48;;;;;;;;;;;;;;;;;;6232482;22;19915;-96
2022/11/02 13:25:14;;;;;;;;;;;;;;;;;;6232060;22;19943;-95
2022/11/02 13:27:40;;;;;;;;;;;;;;;;;;6232066;22;19918;-96
2022/11/02 13:30:06;;;;;;;;;;;;;;;;;;6232304;22;19915;-94
2022/11/02 13:32:32;;;;;;;;;;;;;;;;;;6231200;22;19961;-96
2022/11/02 13:34:58;;;;;;;;;;;;;;;;;;6232100;22;19919;-96
2022/11/02 13:37:24;;;;;;;;;;;;;;;;;;6237946;22;19911;-95
2022/11/02 13:39:50;;;;;;;;;;;;;;;;;;6238298;22;19911;-95
2022/11/02 13:42:16;;;;;;;;;;;;;;;;;;6238181;22;19961;-96
2022/11/02 13:44:42;;;;;;;;;;;;;;;;;;6237096;22;19951;-96
2022/11/02 13:47:08;;;;;;;;;;;;;;;;;;6235922;22;19994;-96
2022/11/02 13:49:34;;;;;;;;;;;;;;;;;;6234902;22;19926;-96
2022/11/02 13:52:00;;;;;;;;;;;;;;;;;;6230292;22;20333;-94
2022/11/02 13:54:26;;;;;;;;;;;;;;;;;;6227970;22;19918;-96
2022/11/02 13:56:52;;;;;;;;;;;;;;;;;;6224932;22;19911;-96
2022/11/02 13:59:18;;;;;;;;;;;;;;;;;;6226825;22;19922;-96
2022/11/02 14:01:44;;;;;;;;;;;;;;;;;;6226337;22;19950;-95
2022/11/02 14:04:10;;;;;;;;;;;;;;;;;;6226290;22;20281;-95
2022/11/02 14:06:36;;;;;;;;;;;;;;;;;;6226419;22;19919;-96
2022/11/02 14:09:02;;;;;;;;;;;;;;;;;;6225924;22;19915;-95
2022/11/02 14:11:27;;;;;;;;;;;;;;;;;;6226143;22;20148;-95
2022/11/02 14:13:53;;;;;;;;;;;;;;;;;;6226090;22;19957;-96
2022/11/02 14:16:19;;;;;;;;;;;;;;;;;;6225873;22;19911;-95
2022/11/02 14:18:46;;;;;;;;;;;;;;;;;;6225518;22;20049;-95
2022/11/02 14:21:12;;;;;;;;;;;;;;;;;;6226296;22;20004;-95
2022/11/02 14:23:38;;;;;;;;;;;;;;;;;;6250971;22;19923;-96
2022/11/02 14:26:04;;;;;;;;;;;;;;;;;;6225997;22;19911;-96
2022/11/02 14:28:30;;;;;;;;;;;;;;;;;;6225682;22;19954;-95
2022/11/02 14:30:56;;;;;;;;;;;;;;;;;;6225750;22;19950;-96
2022/11/02 14:33:22;;;;;;;;;;;;;;;;;;6226067;22;19922;-95
2022/11/02 14:35:48;;;;;;;;;;;;;;;;;;6225839;22;19922;-96
2022/11/02 14:38:14;;;;;;;;;;;;;;;;;;6225697;22;19912;-96
2022/11/02 14:40:40;;;;;;;;;;;;;;;;;;6225945;22;19986;-95
2022/11/02 14:43:06;;;;;;;;;;;;;;;;;;6225840;22;19950;-96
2022/11/02 14:45:32;;;;;;;;;;;;;;;;;;6225933;22;19994;-95
2022/11/02 14:47:58;;;;;;;;;;;;;;;;;;6225646;22;19919;-95
2022/11/02 14:50:24;;;;;;;;;;;;;;;;;;6225582;22;20268;-96
2022/11/02 14:52:50;;;;;;;;;;;;;;;;;;6225862;22;19946;-95
2022/11/02 14:55:16;;;;;;;;;;;;;;;;;;6225654;22;19918;-96
2022/11/02 14:57:42;;;;;;;;;;;;;;;;;;6225672;22;19952;-96
2022/11/02 15:00:08;;;;;;;;;;;;;;;;;;6226070;22;19911;-95
2022/11/02 15:02:33;;;;;;;;;;;;;;;;;;6225605;22;19919;-96
2022/11/02 15:04:59;;;;;;;;;;;;;;;;;;6226039;22;19918;-96
2022/11/02 15:07:25;;;;;;;;;;;;;;;;;;6225588;22;19911;-96
2022/11/02 15:09:52;;;;;;;;;;;;;;;;;;6225086;22;19957;-96
2022/11/02 15:12:18;;;;;;;;;;;;;;;;;;6225577;22;19915;-96
2022/11/02 15:14:44;;;;;;;;;;;;;;;;;;6225765;22;19911;-95
2022/11/02 15:17:10;;;;;;;;;;;;;;;;;;6225609;22;20012;-94
2022/11/02 15:19:36;;;;;;;;;;;;;;;;;;6225417;22;19911;-95
2022/11/02 15:22:02;;;;;;;;;;;;;;;;;;6225636;22;19911;-96
2022/11/02 15:24:29;;;;;;;;;;;;;;;;;;6225516;22;19915;-96
2022/11/02 15:26:55;;;;;;;;;;;;;;;;;;6226111;22;19918;-95
2022/11/02 15:29:21;;;;;;;;;;;;;;;;;;6225543;22;19915;-96
2022/11/02 15:31:47;;;;;;;;;;;;;;;;;;6225092;22;19911;-96
2022/11/02 15:34:15;;;;;;;;;;;;;;;;;;6225887;22;19978;-96
2022/11/02 15:36:41;;;;;;;;;;;;;;;;;;6225103;22;19961;-96
2022/11/02 15:39:07;;;;;;;;;;;;;;;;;;6225232;22;19918;-95
2022/11/02 15:41:33;;;;;;;;;;;;;;;;;;6225446;22;19986;-96
2022/11/02 15:43:59;;;;;;;;;;;;;;;;;;6225234;22;19911;-95
2022/11/02 15:46:25;;;;;;;;;;;;;;;;;;6225703;22;20313;-95
2022/11/02 15:48:51;;;;;;;;;;;;;;;;;;6225443;22;19916;-95
2022/11/02 15:51:17;;;;;;;;;;;;;;;;;;6225761;22;19921;-95
2022/11/02 15:53:43;;;;;;;;;;;;;;;;;;6225011;22;19918;-95
2022/11/02 15:56:09;;;;;;;;;;;;;;;;;;6225268;22;20029;-95
2022/11/02 15:58:35;;;;;;;;;;;;;;;;;;6225135;22;19911;-95
2022/11/02 16:01:01;;;;;;;;;;;;;;;;;;6225412;22;19986;-95
2022/11/02 16:03:27;;;;;;;;;;;;;;;;;;6225371;22;19918;-96
2022/11/02 16:05:52;;;;;;;;;;;;;;;;;;6225258;22;19912;-95
2022/11/02 16:08:18;;;;;;;;;;;;;;;;;;6225121;22;19950;-95
2022/11/02 16:10:44;;;;;;;;;;;;;;;;;;6225065;22;19919;-95
2022/11/02 16:13:10;;;;;;;;;;;;;;;;;;6225008;22;19911;-95
2022/11/02 16:15:36;;;;;;;;;;;;;;;;;;6224655;22;19911;-95
2022/11/02 16:18:02;;;;;;;;;;;;;;;;;;6224530;22;19968;-96
2022/11/02 16:20:28;;;;;;;;;;;;;;;;;;6225016;22;20267;-95
2022/11/02 16:22:54;;;;;;;;;;;;;;;;;;6225220;22;19914;-96
2022/11/02 16:25:20;;;;;;;;;;;;;;;;;;6225543;22;20374;-95
2022/11/02 16:27:49;;;;;;;;;;;;;;;;;;6224846;22;19937;-95
2022/11/02 16:30:15;;;;;;;;;;;;;;;;;;6224875;22;20344;-95
2022/11/02 16:32:41;;;;;;;;;;;;;;;;;;6224588;22;19911;-96
2022/11/02 16:35:10;;;;;;;;;;;;;;;;;;6224972;22;19961;-96
2022/11/02 16:37:41;;;;;;;;;;;;;;;;;;6225385;22;19927;-95
2022/11/02 16:40:07;;;;;;;;;;;;;;;;;;6225151;22;19915;-95
2022/11/02 16:42:33;;;;;;;;;;;;;;;;;;6224876;22;19937;-95
2022/11/02 16:45:00;;;;;;;;;;;;;;;;;;6225085;22;19947;-96
2022/11/02 16:47:26;;;;;;;;;;;;;;;;;;6225708;22;20358;-95
2022/11/02 16:49:51;;;;;;;;;;;;;;;;;;6224897;22;19915;-96
2022/11/02 16:52:17;;;;;;;;;;;;;;;;;;6224551;22;19918;-96